createdAt,value
2022-10-18T00:00:45.945Z,100852.63
2022-10-18T00:03:12.582Z,100859.78
2022-10-18T00:05:39.272Z,100864.41
2022-10-18T00:08:06.045Z,100863.97
2022-10-18T00:10:32.753Z,100869.31
2022-10-18T00:12:59.561Z,100857.09
2022-10-18T00:15:26.184Z,100874.19
2022-10-18T00:17:52.880Z,100878.69
2022-10-18T00:20:19.724Z,100882.78
2022-10-18T00:22:46.680Z,100888.00
2022-10-18T00:25:13.976Z,100895.81
2022-10-18T00:27:40.681Z,100904.53
2022-10-18T00:30:21.804Z,100901.94
2022-10-18T00:32:48.529Z,100911.13
2022-10-18T00:35:15.435Z,100909.03
2022-10-18T00:37:42.182Z,100918.41
2022-10-18T00:40:10.141Z,100927.03
2022-10-18T00:42:37.899Z,100935.03
2022-10-18T00:45:16.953Z,100947.66
2022-10-18T00:47:48.220Z,100946.34
2022-10-18T00:50:15.067Z,100952.88
2022-10-18T00:52:45.754Z,100965.50
2022-10-18T00:55:13.345Z,100980.66
2022-10-18T00:57:43.271Z,100984.00
2022-10-18T01:00:12.445Z,100985.09
2022-10-18T01:02:41.666Z,100981.03
2022-10-18T01:05:10.414Z,101009.56
2022-10-18T01:08:00.044Z,101004.13
2022-10-18T01:10:44.788Z,101018.19
2022-10-18T01:13:33.645Z,101035.88
2022-10-18T01:16:24.785Z,101037.00
2022-10-18T01:18:57.620Z,101045.22
2022-10-18T01:21:45.821Z,101054.84
2022-10-18T01:24:33.685Z,101059.44
2022-10-18T01:27:29.080Z,101071.81
2022-10-18T01:30:34.882Z,101078.59
2022-10-18T01:33:33.069Z,101075.31
2022-10-18T01:36:07.854Z,101094.28
2022-10-18T01:38:37.041Z,101087.75
2022-10-18T01:41:08.029Z,101084.81
2022-10-18T01:43:39.907Z,101101.56
2022-10-18T01:46:08.994Z,101100.94
2022-10-18T01:48:38.096Z,101103.88
2022-10-18T01:51:05.848Z,101115.91
2022-10-18T01:53:34.781Z,101132.88
2022-10-18T01:56:16.720Z,101149.34
2022-10-18T01:58:52.336Z,101157.63
2022-10-18T02:01:39.909Z,101173.75
2022-10-18T02:04:32.570Z,101185.41
2022-10-18T02:07:09.785Z,101186.25
2022-10-18T02:09:50.613Z,101205.91
2022-10-18T02:12:19.387Z,101212.94
2022-10-18T02:14:50.821Z,101235.16
2022-10-18T02:17:20.045Z,101237.69
2022-10-18T02:19:53.761Z,101244.13
2022-10-18T02:22:23.082Z,101244.75
2022-10-18T02:24:55.188Z,101264.41
2022-10-18T02:27:22.665Z,101263.19
2022-10-18T02:29:49.850Z,101263.06
2022-10-18T02:32:22.526Z,101267.94
2022-10-18T02:35:05.492Z,101270.72
2022-10-18T02:37:38.763Z,101260.75
2022-10-18T02:40:08.018Z,101264.03
2022-10-18T02:42:46.272Z,101255.41
2022-10-18T02:45:13.890Z,101266.09
2022-10-18T02:47:40.799Z,101264.28
2022-10-18T02:50:07.890Z,101274.09
2022-10-18T02:52:34.557Z,101271.78
2022-10-18T02:55:01.905Z,101277.97
2022-10-18T02:57:28.749Z,101273.50
2022-10-18T02:59:55.739Z,101280.91
2022-10-18T03:02:22.478Z,101290.75
2022-10-18T03:04:49.262Z,101288.19
2022-10-18T03:07:16.297Z,101292.78
2022-10-18T03:09:43.094Z,101298.88
2022-10-18T03:12:09.795Z,101293.06
2022-10-18T03:14:36.530Z,101296.06
2022-10-18T03:17:03.300Z,101301.78
2022-10-18T03:19:30.046Z,101313.31
2022-10-18T03:21:56.733Z,101305.94
2022-10-18T03:24:23.466Z,101308.94
2022-10-18T03:26:50.106Z,101311.59
2022-10-18T03:29:17.938Z,101321.44
2022-10-18T03:31:44.601Z,101324.13
2022-10-18T03:34:11.298Z,101342.56
2022-10-18T03:36:38.885Z,101345.13
2022-10-18T03:39:05.610Z,101341.97
2022-10-18T03:41:32.294Z,101359.19
2022-10-18T03:43:58.919Z,101367.91
2022-10-18T03:46:25.661Z,101361.88
2022-10-18T03:48:52.362Z,101367.34
2022-10-18T03:51:19.058Z,101364.41
2022-10-18T03:53:45.775Z,101362.31
2022-10-18T03:56:12.497Z,101361.09
2022-10-18T03:58:39.186Z,101366.50
2022-10-18T04:01:05.985Z,101367.78
2022-10-18T04:03:32.608Z,101373.72
2022-10-18T04:06:00.796Z,101374.66
2022-10-18T04:08:27.517Z,101379.09
2022-10-18T04:10:54.244Z,101377.78
2022-10-18T04:13:20.919Z,101382.66
2022-10-18T04:15:47.669Z,101392.47
2022-10-18T04:18:14.343Z,101412.00
2022-10-18T04:20:41.023Z,101417.47
2022-10-18T04:23:07.656Z,101422.56
2022-10-18T04:25:34.409Z,101437.09
2022-10-18T04:28:01.040Z,101447.75
2022-10-18T04:30:27.837Z,101444.78
2022-10-18T04:32:56.444Z,101450.53
2022-10-18T04:35:25.939Z,101452.69
2022-10-18T04:37:52.550Z,101454.41
2022-10-18T04:40:20.064Z,101452.47
2022-10-18T04:42:47.480Z,101461.66
2022-10-18T04:45:14.231Z,101458.22
2022-10-18T04:47:40.946Z,101458.94
2022-10-18T04:50:08.003Z,101463.31
2022-10-18T04:52:34.786Z,101470.13
2022-10-18T04:55:01.423Z,101463.59
2022-10-18T04:57:28.177Z,101483.81
2022-10-18T04:59:54.822Z,101481.47
2022-10-18T05:02:21.551Z,101486.19
2022-10-18T05:04:48.156Z,101488.22
2022-10-18T05:07:14.916Z,101501.25
2022-10-18T05:09:41.556Z,101494.47
2022-10-18T05:12:08.480Z,101496.66
2022-10-18T05:14:35.180Z,101494.97
2022-10-18T05:17:01.941Z,101491.22
2022-10-18T05:19:28.645Z,101493.69
2022-10-18T05:21:55.396Z,101493.13
2022-10-18T05:24:24.211Z,101493.03
2022-10-18T05:26:54.334Z,101497.88
2022-10-18T05:29:21.154Z,101499.00
2022-10-18T05:31:49.176Z,101506.88
2022-10-18T05:34:16.606Z,101516.81
2022-10-18T05:36:44.046Z,101523.97
2022-10-18T05:39:10.726Z,101531.97
2022-10-18T05:41:37.375Z,101547.53
2022-10-18T05:44:05.902Z,101557.03
2022-10-18T05:46:33.395Z,101555.94
2022-10-18T05:49:00.103Z,101546.16
2022-10-18T05:51:26.777Z,101545.19
2022-10-18T05:53:54.824Z,101557.25
2022-10-18T05:56:21.536Z,101566.75
2022-10-18T05:58:51.701Z,101565.16
2022-10-18T06:01:18.799Z,101571.69
2022-10-18T06:03:45.475Z,101584.59
2022-10-18T06:06:13.533Z,101591.84
2022-10-18T06:08:41.939Z,101600.91
2022-10-18T06:11:11.080Z,101608.06
2022-10-18T06:13:45.994Z,101613.06
2022-10-18T06:16:15.384Z,101608.50
2022-10-18T06:18:42.609Z,101605.41
2022-10-18T06:21:09.911Z,101618.19
2022-10-18T06:23:36.946Z,101617.88
2022-10-18T06:26:06.491Z,101612.56
2022-10-18T06:28:35.864Z,101626.94
2022-10-18T06:31:03.718Z,101627.25
2022-10-18T06:33:35.322Z,101638.16
2022-10-18T06:36:07.357Z,101643.69
2022-10-18T06:38:35.658Z,101644.53
2022-10-18T06:41:03.657Z,101644.66
2022-10-18T06:43:30.447Z,101650.59
2022-10-18T06:45:57.616Z,101649.56
2022-10-18T06:48:24.434Z,101655.84
2022-10-18T06:50:57.008Z,101665.25
2022-10-18T06:53:26.131Z,101662.56
2022-10-18T06:55:53.362Z,101665.44
2022-10-18T06:58:20.107Z,101672.59
2022-10-18T07:00:47.621Z,101677.16
2022-10-18T07:03:14.393Z,101692.31
2022-10-18T07:05:41.118Z,101695.94
2022-10-18T07:08:07.858Z,101698.59
2022-10-18T07:10:34.585Z,101711.84
2022-10-18T07:13:20.025Z,101706.81
2022-10-18T07:15:47.952Z,101706.81
2022-10-18T07:18:14.638Z,101710.91
2022-10-18T07:20:41.358Z,101715.25
2022-10-18T07:23:09.514Z,101724.66
2022-10-18T07:25:36.226Z,101727.09
2022-10-18T07:28:02.902Z,101742.63
2022-10-18T07:30:29.603Z,101759.97
2022-10-18T07:32:56.290Z,101758.19
2022-10-18T07:35:22.976Z,101764.28
2022-10-18T07:37:49.672Z,101766.50
2022-10-18T07:40:16.582Z,101759.06
2022-10-18T07:42:43.233Z,101763.13
2022-10-18T07:45:12.507Z,101770.69
2022-10-18T07:47:39.780Z,101776.66
2022-10-18T07:50:07.374Z,101784.31
2022-10-18T07:52:34.184Z,101790.53
2022-10-18T07:55:00.906Z,101803.56
2022-10-18T07:57:27.634Z,101809.53
2022-10-18T07:59:56.991Z,101818.53
2022-10-18T08:02:24.478Z,101818.13
2022-10-18T08:04:51.256Z,101815.03
2022-10-18T08:07:18.055Z,101818.06
2022-10-18T08:09:44.735Z,101821.06
2022-10-18T08:12:11.490Z,101826.03
2022-10-18T08:14:38.152Z,101835.72
2022-10-18T08:17:04.845Z,101841.94
2022-10-18T08:19:31.531Z,101841.50
2022-10-18T08:21:58.414Z,101850.22
2022-10-18T08:24:25.347Z,101854.31
2022-10-18T08:26:51.989Z,101862.31
2022-10-18T08:29:23.892Z,101844.50
2022-10-18T08:31:52.594Z,101859.75
2022-10-18T08:34:19.948Z,101871.22
2022-10-18T08:36:47.085Z,101872.25
2022-10-18T08:39:13.855Z,101877.75
2022-10-18T08:41:43.420Z,101885.66
2022-10-18T08:44:27.586Z,101888.44
2022-10-18T08:47:07.344Z,101892.75
2022-10-18T08:50:02.583Z,101893.03
2022-10-18T08:52:53.526Z,101898.16
2022-10-18T08:55:29.214Z,101903.13
2022-10-18T08:57:58.292Z,101912.53
2022-10-18T09:00:30.630Z,101922.25
2022-10-18T09:03:34.126Z,101930.63
2022-10-18T09:06:03.906Z,101928.69
2022-10-18T09:08:52.359Z,101928.13
2022-10-18T09:11:21.814Z,101934.94
2022-10-18T09:14:16.498Z,101931.97
2022-10-18T09:16:59.061Z,101938.19
2022-10-18T09:19:38.087Z,101941.34
2022-10-18T09:22:17.588Z,101942.97
2022-10-18T09:24:56.259Z,101935.59
2022-10-18T09:27:35.851Z,101941.00
2022-10-18T09:30:20.000Z,101943.75
2022-10-18T09:33:18.718Z,101945.41
2022-10-18T09:36:22.044Z,101955.66
2022-10-18T09:38:55.139Z,101962.00
2022-10-18T09:41:27.923Z,101957.94
2022-10-18T09:44:03.461Z,101965.91
2022-10-18T09:46:39.189Z,101968.16
2022-10-18T09:49:19.499Z,101971.81
2022-10-18T09:51:49.340Z,101973.81
2022-10-18T09:54:34.064Z,101993.22
2022-10-18T09:57:06.240Z,101998.47
2022-10-18T09:59:49.408Z,102003.09
2022-10-18T10:02:19.389Z,102006.63
2022-10-18T10:04:46.171Z,102001.28
2022-10-18T10:07:18.286Z,102000.97
2022-10-18T10:09:55.876Z,101996.06
2022-10-18T10:12:32.347Z,102008.28
2022-10-18T10:15:29.535Z,102006.75
2022-10-18T10:18:06.887Z,102015.75
2022-10-18T10:20:48.610Z,102021.84
2022-10-18T10:23:39.618Z,102034.13
2022-10-18T10:26:27.590Z,102028.75
2022-10-18T10:28:54.713Z,102032.31
2022-10-18T10:31:24.624Z,102027.97
2022-10-18T10:34:05.160Z,102038.63
2022-10-18T10:36:33.632Z,102035.19
2022-10-18T10:39:05.981Z,102040.84
2022-10-18T10:41:33.563Z,102054.09
2022-10-18T10:44:03.974Z,102055.31
2022-10-18T10:46:36.571Z,102054.88
2022-10-18T10:49:35.071Z,102050.78
2022-10-18T10:52:15.453Z,102058.06
2022-10-18T10:54:52.511Z,102058.41
2022-10-18T10:57:26.080Z,102055.66
2022-10-18T10:59:55.560Z,102050.13
2022-10-18T11:02:29.780Z,102060.09
2022-10-18T11:05:15.195Z,102052.28
2022-10-18T11:07:46.492Z,102063.44
2022-10-18T11:10:18.400Z,102079.03
2022-10-18T11:12:54.310Z,102080.31
2022-10-18T11:15:43.035Z,102081.41
2022-10-18T11:18:25.755Z,102083.59
2022-10-18T11:21:19.115Z,102083.78
2022-10-18T11:23:46.065Z,102089.22
2022-10-18T11:26:12.744Z,102086.66
2022-10-18T11:28:58.363Z,102091.03
2022-10-18T11:31:35.826Z,102097.78
2022-10-18T11:34:17.792Z,102092.78
2022-10-18T11:36:56.291Z,102088.00
2022-10-18T11:40:06.186Z,102094.72
2022-10-18T11:42:49.935Z,102090.78
2022-10-18T11:45:42.995Z,102093.34
2022-10-18T11:48:19.519Z,102104.81
2022-10-18T11:51:11.178Z,102102.47
2022-10-18T11:53:52.053Z,102107.69
2022-10-18T11:56:32.707Z,102098.13
2022-10-18T11:59:08.248Z,102086.84
2022-10-18T12:01:38.202Z,102089.13
2022-10-18T12:04:09.268Z,102099.84
2022-10-18T12:06:41.901Z,102094.59
2022-10-18T12:09:25.379Z,102097.31
2022-10-18T12:12:02.931Z,102101.06
2022-10-18T12:14:35.183Z,102103.00
2022-10-18T12:17:40.791Z,102104.84
2022-10-18T12:20:02.782Z,102114.38
2022-10-18T12:22:39.759Z,102108.97
2022-10-18T12:25:19.298Z,102106.63
2022-10-18T12:28:02.750Z,102106.16
2022-10-18T12:31:06.949Z,102110.91
2022-10-18T12:33:41.997Z,102108.97
2022-10-18T12:36:39.060Z,102095.34
2022-10-18T12:39:12.630Z,102104.25
2022-10-18T12:41:39.441Z,102108.38
2022-10-18T12:44:33.565Z,102109.25
2022-10-18T12:47:03.408Z,102106.13
2022-10-18T12:49:31.660Z,102113.00
2022-10-18T12:52:01.708Z,102095.25
2022-10-18T12:54:39.730Z,102105.09
2022-10-18T12:57:22.560Z,102102.59
2022-10-18T12:59:49.781Z,102114.44
2022-10-18T13:02:22.285Z,102118.28
2022-10-18T13:04:49.223Z,102114.16
2022-10-18T13:07:32.489Z,102119.25
2022-10-18T13:10:12.414Z,102122.09
2022-10-18T13:12:47.807Z,102122.63
2022-10-18T13:15:53.894Z,102129.84
2022-10-18T13:18:36.386Z,102138.06
2022-10-18T13:21:14.287Z,102141.38
2022-10-18T13:24:07.142Z,102137.78
2022-10-18T13:27:18.140Z,102147.56
2022-10-18T13:30:27.714Z,102145.38
2022-10-18T13:33:31.487Z,102138.53
2022-10-18T13:35:59.855Z,102129.41
2022-10-18T13:38:48.666Z,102131.91
2022-10-18T13:41:21.020Z,102142.44
2022-10-18T13:43:56.918Z,102146.25
2022-10-18T13:46:32.715Z,102147.22
2022-10-18T13:49:17.842Z,102142.72
2022-10-18T13:51:49.957Z,102145.28
2022-10-18T13:54:38.629Z,102151.94
2022-10-18T13:57:14.415Z,102145.22
2022-10-18T14:00:02.924Z,102145.72
2022-10-18T14:03:00.024Z,102143.31
2022-10-18T14:05:42.057Z,102144.06
2022-10-18T14:08:16.556Z,102139.16
2022-10-18T14:11:01.252Z,102127.81
2022-10-18T14:13:39.040Z,102117.22
2022-10-18T14:16:37.087Z,102121.97
2022-10-18T14:19:25.471Z,102135.38
2022-10-18T14:22:21.227Z,102128.28
2022-10-18T14:24:52.834Z,102126.28
2022-10-18T14:27:22.452Z,102129.59
2022-10-18T14:29:51.018Z,102127.84
2022-10-18T14:32:28.349Z,102134.38
2022-10-18T14:35:27.304Z,102132.97
2022-10-18T14:37:43.387Z,102145.56
2022-10-18T14:40:28.827Z,102133.19
2022-10-18T14:42:55.565Z,102128.47
2022-10-18T14:45:23.856Z,102134.06
2022-10-18T14:47:50.515Z,102138.47
2022-10-18T14:50:30.701Z,102144.06
2022-10-18T14:52:57.775Z,102135.31
2022-10-18T14:55:28.690Z,102147.00
2022-10-18T14:57:55.494Z,102146.53
2022-10-18T15:00:33.935Z,102143.59
2022-10-18T15:03:03.646Z,102140.16
2022-10-18T15:05:30.795Z,102154.94
2022-10-18T15:08:00.118Z,102154.59
2022-10-18T15:10:33.095Z,102157.28
2022-10-18T15:13:11.214Z,102168.13
2022-10-18T15:15:39.387Z,102169.59
2022-10-18T15:18:08.176Z,102174.84
2022-10-18T15:20:42.392Z,102177.28
2022-10-18T15:23:26.047Z,102173.03
2022-10-18T15:26:00.708Z,102179.97
2022-10-18T15:28:36.067Z,102176.63
2022-10-18T15:31:03.327Z,102167.47
2022-10-18T15:33:34.573Z,102176.25
2022-10-18T15:36:11.224Z,102175.78
2022-10-18T15:38:38.704Z,102182.09
2022-10-18T15:41:38.518Z,102174.03
2022-10-18T15:44:38.681Z,102178.31
2022-10-18T15:47:20.270Z,102183.78
2022-10-18T15:49:47.109Z,102188.78
2022-10-18T15:52:36.665Z,102180.59
2022-10-18T15:55:29.592Z,102191.78
2022-10-18T15:58:06.524Z,102186.91
2022-10-18T16:00:33.273Z,102185.06
2022-10-18T16:03:00.031Z,102190.81
2022-10-18T16:05:27.254Z,102188.09
2022-10-18T16:07:54.061Z,102177.09
2022-10-18T16:10:20.951Z,102179.06
2022-10-18T16:12:48.814Z,102183.66
2022-10-18T16:15:15.589Z,102182.72
2022-10-18T16:17:42.434Z,102185.13
2022-10-18T16:20:21.216Z,102176.09
2022-10-18T16:22:48.138Z,102177.78
2022-10-18T16:25:14.902Z,102173.91
2022-10-18T16:27:41.677Z,102189.66
2022-10-18T16:30:15.997Z,102196.09
2022-10-18T16:32:42.763Z,102197.53
2022-10-18T16:35:10.254Z,102199.28
2022-10-18T16:37:38.297Z,102199.28
2022-10-18T16:40:31.616Z,102190.38
2022-10-18T16:42:58.356Z,102200.72
2022-10-18T16:45:24.996Z,102206.41
2022-10-18T16:47:51.705Z,102202.59
2022-10-18T16:50:20.424Z,102201.13
2022-10-18T16:52:47.184Z,102199.16
2022-10-18T16:55:16.465Z,102208.84
2022-10-18T16:57:43.708Z,102220.00
2022-10-18T17:00:20.695Z,102229.41
2022-10-18T17:02:48.496Z,102222.88
2022-10-18T17:05:19.066Z,102230.84
2022-10-18T17:07:47.299Z,102235.22
2022-10-18T17:10:18.302Z,102231.28
2022-10-18T17:12:45.392Z,102227.88
2022-10-18T17:15:12.930Z,102227.66
2022-10-18T17:17:39.857Z,102234.34
2022-10-18T17:20:08.353Z,102237.78
2022-10-18T17:22:35.126Z,102236.69
2022-10-18T17:25:01.817Z,102237.09
2022-10-18T17:27:28.504Z,102236.56
2022-10-18T17:29:55.196Z,102236.44
2022-10-18T17:32:21.989Z,102237.41
2022-10-18T17:34:48.683Z,102238.91
2022-10-18T17:37:15.456Z,102248.97
2022-10-18T17:39:42.168Z,102261.72
2022-10-18T17:42:08.962Z,102247.91
2022-10-18T17:44:36.825Z,102251.66
2022-10-18T17:47:03.795Z,102249.94
2022-10-18T17:49:30.563Z,102258.41
2022-10-18T17:51:57.284Z,102255.06
2022-10-18T17:54:23.921Z,102260.41
2022-10-18T17:56:53.829Z,102261.25
2022-10-18T17:59:21.471Z,102259.34
2022-10-18T18:01:48.236Z,102264.66
2022-10-18T18:04:17.061Z,102265.75
2022-10-18T18:06:45.422Z,102271.31
2022-10-18T18:09:16.685Z,102272.88
2022-10-18T18:11:44.857Z,102285.28
2022-10-18T18:14:12.035Z,102276.59
2022-10-18T18:16:42.222Z,102279.00
2022-10-18T18:19:10.021Z,102283.25
2022-10-18T18:21:37.263Z,102268.91
2022-10-18T18:24:04.621Z,102268.91
2022-10-18T18:26:33.361Z,102284.59
2022-10-18T18:31:30.780Z,102285.19
2022-10-18T18:34:01.105Z,102290.38
2022-10-18T18:36:32.571Z,102293.88
2022-10-18T18:38:59.927Z,102289.41
2022-10-18T18:41:28.172Z,102290.78
2022-10-18T18:44:04.205Z,102304.31
2022-10-18T18:46:36.636Z,102303.00
2022-10-18T18:49:03.454Z,102320.28
2022-10-18T18:51:30.259Z,102308.75
2022-10-18T18:53:56.895Z,102305.53
2022-10-18T18:56:25.802Z,102306.69
2022-10-18T18:58:53.480Z,102313.72
2022-10-18T19:01:25.733Z,102312.59
2022-10-18T19:03:55.539Z,102315.09
2022-10-18T19:06:28.454Z,102309.53
2022-10-18T19:09:01.477Z,102318.34
2022-10-18T19:11:32.521Z,102325.69
2022-10-18T19:14:00.050Z,102314.72
2022-10-18T19:16:29.018Z,102322.84
2022-10-18T19:18:55.705Z,102318.75
2022-10-18T19:21:30.949Z,102311.78
2022-10-18T19:24:00.889Z,102313.88
2022-10-18T19:26:50.176Z,102310.63
2022-10-18T19:29:27.083Z,102307.28
2022-10-18T19:31:56.225Z,102307.50
2022-10-18T19:34:24.524Z,102303.28
2022-10-18T19:36:52.216Z,102311.31
2022-10-18T19:39:42.169Z,102316.22
2022-10-18T19:42:16.076Z,102313.75
2022-10-18T19:44:45.907Z,102306.69
2022-10-18T19:47:14.355Z,102305.81
2022-10-18T19:49:42.916Z,102310.78
2022-10-18T19:52:12.132Z,102307.78
2022-10-18T19:54:39.156Z,102309.56
2022-10-18T19:57:05.834Z,102310.84
2022-10-18T19:59:32.610Z,102314.50
2022-10-18T20:02:04.498Z,102309.84
2022-10-18T20:04:34.551Z,102307.88
2022-10-18T20:07:02.834Z,102310.91
2022-10-18T20:09:29.795Z,102314.50
2022-10-18T20:11:56.648Z,102320.28
2022-10-18T20:14:23.448Z,102327.75
2022-10-18T20:16:50.171Z,102328.56
2022-10-18T20:19:16.879Z,102320.81
2022-10-18T20:21:43.668Z,102316.78
2022-10-18T20:24:11.401Z,102321.06
2022-10-18T20:26:39.539Z,102322.78
2022-10-18T20:29:07.671Z,102326.56
2022-10-18T20:31:38.579Z,102323.19
2022-10-18T20:34:08.234Z,102327.72
2022-10-18T20:36:35.309Z,102321.16
2022-10-18T20:39:02.533Z,102319.63
2022-10-18T20:41:34.782Z,102316.19
2022-10-18T20:44:05.071Z,102310.34
2022-10-18T20:49:17.822Z,102320.09
2022-10-18T20:51:44.880Z,102325.69
2022-10-18T20:54:12.256Z,102327.44
2022-10-18T20:56:39.469Z,102320.13
2022-10-18T20:59:09.842Z,102326.59
2022-10-18T21:01:38.709Z,102311.94
2022-10-18T21:04:07.820Z,102315.84
2022-10-18T21:06:37.209Z,102317.63
2022-10-18T21:09:14.882Z,102325.56
2022-10-18T21:11:44.959Z,102324.69
2022-10-18T21:14:14.007Z,102320.25
2022-10-18T21:16:41.177Z,102330.78
2022-10-18T21:19:13.433Z,102336.31
2022-10-18T21:21:45.929Z,102324.34
2022-10-18T21:24:15.160Z,102335.53
2022-10-18T21:26:42.017Z,102325.72
2022-10-18T21:29:09.908Z,102329.16
2022-10-18T21:31:39.907Z,102324.44
2022-10-18T21:34:15.316Z,102322.59
2022-10-18T21:36:44.243Z,102326.41
2022-10-18T21:39:15.300Z,102327.94
2022-10-18T21:41:42.793Z,102333.28
2022-10-18T21:44:11.334Z,102337.56
2022-10-18T21:46:43.185Z,102342.03
2022-10-18T21:49:10.396Z,102330.00
2022-10-18T21:51:37.688Z,102331.19
2022-10-18T21:54:04.515Z,102329.38
2022-10-18T21:56:33.836Z,102329.56
2022-10-18T21:59:01.381Z,102329.47
2022-10-18T22:01:34.196Z,102323.78
2022-10-18T22:04:06.222Z,102329.97
2022-10-18T22:09:09.999Z,102328.75
2022-10-18T22:11:41.075Z,102325.06
2022-10-18T22:14:08.381Z,102320.59
2022-10-18T22:16:35.113Z,102326.00
2022-10-18T22:19:04.537Z,102320.56
2022-10-18T22:21:31.324Z,102317.97
2022-10-18T22:23:59.121Z,102324.69
2022-10-18T22:26:30.849Z,102316.47
2022-10-18T22:29:04.412Z,102307.00
2022-10-18T22:31:34.701Z,102311.03
2022-10-18T22:34:06.658Z,102305.53
2022-10-18T22:36:34.517Z,102300.97
2022-10-18T22:39:01.769Z,102305.78
2022-10-18T22:41:28.624Z,102307.94
2022-10-18T22:43:57.403Z,102306.56
2022-10-18T22:46:26.822Z,102307.84
2022-10-18T22:48:53.684Z,102301.31
2022-10-18T22:51:20.397Z,102301.13
2022-10-18T22:53:47.188Z,102314.38
2022-10-18T22:56:17.518Z,102315.25
2022-10-18T22:58:44.282Z,102311.97
2022-10-18T23:01:13.571Z,102312.66
2022-10-18T23:03:40.763Z,102305.19
2022-10-18T23:06:25.535Z,102309.91
2022-10-18T23:08:53.997Z,102290.97
2022-10-18T23:11:21.578Z,102302.81
2022-10-18T23:13:48.753Z,102303.25
2022-10-18T23:16:16.338Z,102300.22
2022-10-18T23:18:43.115Z,102296.38
2022-10-18T23:21:12.160Z,102296.78
2022-10-18T23:23:41.243Z,102300.84
2022-10-18T23:26:10.716Z,102308.63
2022-10-18T23:28:39.724Z,102299.66
2022-10-18T23:31:19.020Z,102294.59
2022-10-18T23:33:47.922Z,102300.88
2022-10-18T23:36:15.361Z,102300.28
2022-10-18T23:38:42.566Z,102287.91
2022-10-18T23:41:11.082Z,102294.94
2022-10-18T23:43:38.404Z,102299.25
2022-10-18T23:46:05.935Z,102297.47
2022-10-18T23:48:34.234Z,102289.63
2022-10-18T23:51:01.681Z,102286.03
2022-10-18T23:53:28.431Z,102287.59
2022-10-18T23:55:59.387Z,102289.09
2022-10-18T23:58:27.669Z,102285.25
